MST,Max TemperatureF,Mean TemperatureF,Min TemperatureF,Max Dew PointF,MeanDew PointF,Min DewpointF,Max Humidity, Mean Humidity, Min Humidity, Max Sea Level PressureIn, Mean Sea Level PressureIn, Min Sea Level PressureIn, Max VisibilityMiles, Mean VisibilityMiles, Min VisibilityMiles, Max Wind SpeedMPH, Mean Wind SpeedMPH, Max Gust SpeedMPH,PrecipitationIn, CloudCover, Events, WindDirDegrees
2013-2-1,34,26,18,25,20,13,81,66,51,30.23,30.09,30.00,10,8,0,39,19,46,T,6,Fog-Snow,266
2013-2-2,45,31,16,17,12,8,74,50,25,30.35,30.28,30.17,10,10,10,25,15,31,0.00,0,,255
2013-2-3,46,33,20,8,6,3,56,37,18,30.14,30.01,29.87,10,10,10,23,16,29,0.00,0,,244
2013-2-4,42,31,20,16,11,5,53,40,27,29.98,29.92,29.84,10,10,10,36,22,43,0.00,0,,247
2013-2-5,47,36,24,20,17,13,62,48,34,29.98,29.88,29.77,10,10,10,31,19,38,0.00,0,,237
2013-2-6,41,29,16,24,16,9,75,54,32,30.06,29.85,29.73,10,10,10,26,12,30,0.00,4,,253
2013-2-7,42,26,10,14,5,-11,80,45,10,30.23,30.11,30.00,10,10,10,22,10,29,0.00,0,,204
2013-2-8,46,28,10,12,5,-1,67,42,17,30.04,29.84,29.63,10,10,10,21,7,25,0.00,2,,161
2013-2-9,30,23,16,21,17,10,96,73,50,29.68,29.56,29.50,10,5,0,22,10,25,0.03,8,Fog-Snow,339
2013-2-10,19,8,-3,16,12,-5,92,83,73,30.17,29.76,29.56,10,4,2,26,15,31,T,6,Snow,322
2013-2-11,17,4,-9,5,-3,-13,91,73,54,30.26,30.05,29.88,,,,14,4,18,0.00,0,,196
2013-2-12,21,8,-5,10,1,-8,80,65,49,30.28,30.22,30.13,,,,20,7,24,0.00,1,,71
2013-2-13,31,22,12,19,14,6,77,68,58,30.13,30.06,29.99,,,,38,17,46,0.00,1,,265
2013-2-14,28,19,9,19,13,9,96,79,62,30.34,30.15,30.00,10,6,1,25,11,33,T,7,Snow,334
2013-2-15,26,17,7,14,11,5,92,76,60,30.41,30.33,30.13,10,10,10,26,16,32,T,5,Snow,284
2013-2-16,44,32,20,18,12,9,68,49,29,30.28,30.12,29.89,10,10,10,32,17,39,0.00,0,,259
2013-2-17,45,33,20,19,10,4,77,48,19,29.86,29.70,29.55,10,9,2,41,21,48,T,3,Snow,270
2013-2-18,25,18,11,18,11,1,88,65,42,30.13,29.95,29.75,10,9,1,35,17,41,T,4,Snow,296
2013-2-19,42,23,4,11,3,-4,69,43,17,30.12,29.92,29.72,10,10,10,28,15,36,0.00,0,,164
2013-2-20,43,26,10,18,11,4,100,60,20,29.75,29.64,29.52,10,10,7,23,10,25,0.00,3,,181
2013-2-21,21,10,-2,18,13,0,96,87,77,29.98,29.73,29.58,10,4,0,20,8,24,0.04,7,Fog-Snow,350
2013-2-22,25,11,-3,11,3,-6,95,73,50,30.06,29.95,29.76,10,8,0,22,10,25,0.00,1,Fog,241
2013-2-23,32,23,13,21,16,5,100,75,50,29.87,29.71,29.60,10,6,1,30,16,35,T,6,Snow,95
2013-2-24,22,10,-2,19,14,-4,92,85,77,30.23,29.85,29.66,10,5,1,22,13,26,0.03,7,Snow,359
2013-2-25,22,4,-15,11,-1,-17,91,74,57,30.30,30.11,29.90,10,8,0,14,6,20,0.00,0,Fog,121
2013-2-26,23,17,10,16,14,7,92,74,56,30.25,29.92,29.78,10,4,0,31,16,38,T,7,Fog-Snow,325
2013-2-27,23,11,-2,12,3,-4,91,74,56,30.45,30.36,30.28,10,10,10,16,6,21,T,1,,282
2013-2-28,30,17,3,14,7,-3,79,63,46,30.42,30.35,30.27,10,10,10,26,10,31,0.00,2,,256